Main page
METAR-TAF:

METAR-TAF

Airports :

Ferrara, Italy

latitude: 44-50N, longitude: 011-37E, elevation: 10 m

Current weather observation

The report was made 56 minutes ago, at 09:55 UTC
Wind 4 kt from the North
Temperature 5°C
Humidity 81%
Pressure 1007 hPa
Visibility 10 km or more
Few clouds at a height of 3000 ft
Scattered clouds at a height of 3500 ft

METAR: LIPF 160955Z 01004KT 9999 FEW030 SCT035 05/02 Q1007 RMK OVC VIS MIN 9999

Time: 11:51 (10:51 UTC)


TAF: missing

Weather observations and forecasts of more than 4000 airports (METAR and TAF reports).

The available stations are represented by yellow and red dots on the map.

Hover mouse over dot to see the name of the station.

Then click to see weather observations and forecasts.

To change the map : click on the green buttons with a black cross to zoom in, on the green button with a dash to zoom out, or on the green arrows for adjacent maps.


METAR-TAF: